Time;durP1;ratioP1;P1;durP2;ratioP2;P2;SDS_P1;SDS_P2;PMS_P1;PMS_P2;Temp;Humidity;BMP_temperature;BMP_pressure;BME280_temperature;BME280_humidity;BME280_pressure;Samples;Min_cycle;Max_cycle;Signal;HPM_P1;HPM_P2
2022/05/24 00:00:16;;;;;;;7.05;5.20;;;;;;;;;;6293751;28;20072;-58
2022/05/24 00:03:34;;;;;;;8.85;4.93;;;;;;;;;;6291157;28;20136;-54
2022/05/24 00:06:35;;;;;;;8.15;5.22;;;;;;;;;;6290947;28;20048;-57
2022/05/24 00:09:36;;;;;;;9.40;5.05;;;;;;;;;;6293346;28;20087;-58
2022/05/24 00:12:38;;;;;;;7.22;4.93;;;;;;;;;;6289667;28;20052;-58
2022/05/24 00:15:38;;;;;;;9.03;5.23;;;;;;;;;;6292621;28;20041;-55
2022/05/24 00:18:39;;;;;;;8.50;4.80;;;;;;;;;;6288866;28;20370;-58
2022/05/24 00:21:40;;;;;;;11.00;5.10;;;;;;;;;;6291736;28;20136;-58
2022/05/24 00:24:40;;;;;;;9.02;5.53;;;;;;;;;;6293074;28;20049;-58
2022/05/24 00:27:41;;;;;;;8.15;5.20;;;;;;;;;;6289951;28;20120;-54
2022/05/24 00:30:44;;;;;;;8.73;5.70;;;;;;;;;;6293191;28;20453;-55
2022/05/24 00:33:45;;;;;;;7.72;5.07;;;;;;;;;;6290843;28;20454;-54
2022/05/24 00:36:45;;;;;;;11.10;5.68;;;;;;;;;;6290232;28;20048;-54
2022/05/24 00:39:47;;;;;;;12.65;6.22;;;;;;;;;;6289547;28;20032;-55
2022/05/24 00:42:49;;;;;;;8.65;5.00;;;;;;;;;;6291685;28;20084;-55
2022/05/24 00:45:55;;;;;;;8.73;5.47;;;;;;;;;;6292592;28;20044;-55
2022/05/24 00:49:04;;;;;;;12.77;5.88;;;;;;;;;;6290199;28;20076;-54
2022/05/24 00:52:14;;;;;;;11.55;5.30;;;;;;;;;;6290129;28;20049;-56
2022/05/24 00:55:21;;;;;;;8.73;5.40;;;;;;;;;;6298201;28;20036;-54
2022/05/24 00:58:55;;;;;;;9.85;5.60;;;;;;;;;;6288603;28;20143;-54
2022/05/24 01:01:56;;;;;;;10.02;5.50;;;;;;;;;;6290098;28;20462;-55
2022/05/24 01:04:57;;;;;;;10.93;5.38;;;;;;;;;;6292402;28;20045;-58
2022/05/24 01:07:58;;;;;;;9.03;5.53;;;;;;;;;;6289305;28;20137;-58
2022/05/24 01:11:00;;;;;;;9.27;5.40;;;;;;;;;;6291574;28;20083;-55
2022/05/24 01:14:02;;;;;;;12.88;6.30;;;;;;;;;;6285693;28;20118;-57
2022/05/24 01:17:03;;;;;;;8.85;5.57;;;;;;;;;;6289606;28;20049;-59
2022/05/24 01:20:06;;;;;;;11.33;5.57;;;;;;;;;;6288681;28;20103;-57
2022/05/24 01:23:16;;;;;;;9.90;5.45;;;;;;;;;;6290178;28;20736;-58
2022/05/24 01:26:40;;;;;;;9.63;5.63;;;;;;;;;;6291035;28;20140;-56
2022/05/24 01:29:40;;;;;;;8.82;5.00;;;;;;;;;;6284514;28;20055;-59
2022/05/24 01:36:09;;;;;;;8.77;5.43;;;;;;;;;;6291265;28;20047;-58
2022/05/24 01:39:11;;;;;;;9.98;5.93;;;;;;;;;;6287673;28;20518;-58
2022/05/24 01:42:12;;;;;;;10.73;5.95;;;;;;;;;;6289883;28;20086;-55
2022/05/24 01:45:20;;;;;;;8.93;5.47;;;;;;;;;;6285950;28;20521;-55
2022/05/24 01:48:26;;;;;;;9.95;5.97;;;;;;;;;;6289888;28;20051;-55
2022/05/24 01:51:32;;;;;;;8.35;5.53;;;;;;;;;;6291437;28;20080;-55
2022/05/24 01:54:37;;;;;;;9.48;5.72;;;;;;;;;;6286991;28;20411;-55
2022/05/24 01:57:43;;;;;;;8.27;5.35;;;;;;;;;;6288381;28;20149;-58
2022/05/24 02:00:58;;;;;;;9.65;5.90;;;;;;;;;;6291156;28;20400;-57
2022/05/24 02:04:04;;;;;;;8.75;5.57;;;;;;;;;;6288508;28;20543;-58
2022/05/24 02:07:14;;;;;;;11.13;5.72;;;;;;;;;;6290139;28;20049;-54
2022/05/24 02:10:14;;;;;;;10.18;5.78;;;;;;;;;;6288764;28;20049;-58
2022/05/24 02:13:24;;;;;;;9.95;5.72;;;;;;;;;;6286340;28;20114;-55
2022/05/24 02:16:29;;;;;;;11.18;5.97;;;;;;;;;;6313285;28;20062;-58
2022/05/24 02:19:35;;;;;;;9.60;5.72;;;;;;;;;;6295234;28;20139;-57
2022/05/24 02:22:36;;;;;;;9.85;6.30;;;;;;;;;;6288873;28;20912;-56
2022/05/24 02:25:51;;;;;;;11.52;6.38;;;;;;;;;;6287748;28;20056;-54
2022/05/24 02:28:53;;;;;;;12.27;6.15;;;;;;;;;;6287635;28;20047;-56
2022/05/24 02:31:53;;;;;;;10.93;6.40;;;;;;;;;;6290260;28;20055;-55
2022/05/24 02:34:54;;;;;;;10.05;5.88;;;;;;;;;;6288822;28;20092;-56
2022/05/24 02:37:55;;;;;;;10.32;6.22;;;;;;;;;;6288260;28;20131;-58
2022/05/24 02:44:16;;;;;;;8.70;5.97;;;;;;;;;;6290579;28;20121;-58
2022/05/24 02:47:17;;;;;;;10.23;6.20;;;;;;;;;;6294673;28;20092;-57
2022/05/24 02:50:18;;;;;;;10.52;6.97;;;;;;;;;;6292949;28;20051;-59
2022/05/24 02:53:18;;;;;;;10.27;6.15;;;;;;;;;;6293517;28;20458;-54
2022/05/24 02:56:19;;;;;;;9.20;5.82;;;;;;;;;;6295395;28;20147;-56
2022/05/24 02:59:20;;;;;;;14.23;6.40;;;;;;;;;;6292391;28;20118;-55
2022/05/24 03:02:21;;;;;;;11.85;6.25;;;;;;;;;;6294777;28;20499;-55
2022/05/24 03:05:22;;;;;;;11.68;6.68;;;;;;;;;;6292566;28;20355;-57
2022/05/24 03:15:01;;;;;;;11.38;6.00;;;;;;;;;;6299889;28;20055;-56
2022/05/24 03:18:02;;;;;;;11.13;6.03;;;;;;;;;;6291640;28;20048;-57
2022/05/24 03:21:02;;;;;;;11.23;6.38;;;;;;;;;;6293583;28;20044;-59
2022/05/24 03:24:03;;;;;;;14.85;6.93;;;;;;;;;;6291558;28;20083;-57
2022/05/24 03:27:13;;;;;;;13.00;6.45;;;;;;;;;;6294723;28;20070;-54
2022/05/24 03:30:15;;;;;;;15.07;6.70;;;;;;;;;;6287444;28;20057;-59
2022/05/24 03:33:16;;;;;;;12.33;6.60;;;;;;;;;;6292579;28;20048;-54
2022/05/24 03:36:19;;;;;;;12.07;6.55;;;;;;;;;;6292918;28;20301;-58
2022/05/24 03:39:20;;;;;;;11.18;6.55;;;;;;;;;;6289668;28;20346;-57
2022/05/24 03:42:22;;;;;;;13.33;6.37;;;;;;;;;;6293577;28;20040;-54
2022/05/24 03:45:23;;;;;;;13.43;6.55;;;;;;;;;;6289305;28;20041;-55
2022/05/24 03:48:23;;;;;;;12.23;6.40;;;;;;;;;;6295938;28;20118;-58
2022/05/24 03:51:24;;;;;;;10.75;6.15;;;;;;;;;;6290083;28;20430;-57
2022/05/24 03:54:25;;;;;;;9.75;6.18;;;;;;;;;;6292222;28;20056;-59
2022/05/24 04:00:45;;;;;;;10.27;6.13;;;;;;;;;;6298704;28;20117;-57
2022/05/24 04:03:46;;;;;;;9.70;6.27;;;;;;;;;;6289482;28;20076;-58
2022/05/24 04:06:47;;;;;;;8.65;5.70;;;;;;;;;;6291483;28;20490;-59
2022/05/24 04:09:47;;;;;;;9.88;6.47;;;;;;;;;;6290593;28;20446;-56
2022/05/24 04:12:48;;;;;;;8.70;5.82;;;;;;;;;;6293333;28;20075;-57
2022/05/24 04:15:49;;;;;;;9.45;6.10;;;;;;;;;;6297009;28;20142;-57
2022/05/24 04:18:51;;;;;;;10.00;5.53;;;;;;;;;;6312364;28;20452;-56
2022/05/24 04:21:52;;;;;;;11.15;6.38;;;;;;;;;;6289653;28;20044;-55
2022/05/24 04:24:53;;;;;;;8.37;5.73;;;;;;;;;;6287511;28;20480;-58
2022/05/24 04:27:53;;;;;;;9.15;5.90;;;;;;;;;;6302903;28;20036;-57
2022/05/24 04:30:54;;;;;;;8.65;5.85;;;;;;;;;;6299997;28;20044;-58
2022/05/24 04:33:55;;;;;;;10.18;5.90;;;;;;;;;;6299359;28;20056;-57
2022/05/24 04:36:56;;;;;;;11.73;6.20;;;;;;;;;;6295808;28;20044;-58
2022/05/24 04:39:56;;;;;;;10.35;6.07;;;;;;;;;;6292292;28;20471;-55
2022/05/24 04:42:57;;;;;;;9.65;6.05;;;;;;;;;;6291669;28;20557;-59
2022/05/24 04:45:57;;;;;;;10.73;6.40;;;;;;;;;;6296534;28;20066;-53
2022/05/24 04:48:58;;;;;;;10.38;5.70;;;;;;;;;;6299459;28;20036;-58
2022/05/24 04:51:59;;;;;;;9.93;6.45;;;;;;;;;;6294139;28;20139;-56
2022/05/24 04:55:00;;;;;;;12.80;6.55;;;;;;;;;;6297217;28;20063;-59
2022/05/24 04:58:00;;;;;;;11.38;6.40;;;;;;;;;;6297073;28;20125;-52
2022/05/24 05:01:01;;;;;;;10.95;6.50;;;;;;;;;;6292603;28;20053;-52
2022/05/24 05:04:02;;;;;;;11.02;6.57;;;;;;;;;;6295317;28;20187;-55
2022/05/24 05:07:03;;;;;;;11.83;6.87;;;;;;;;;;6295608;28;20134;-52
2022/05/24 05:10:04;;;;;;;14.83;6.80;;;;;;;;;;6291174;28;20047;-59
2022/05/24 05:13:06;;;;;;;9.45;6.22;;;;;;;;;;6299414;28;20371;-53
2022/05/24 05:16:07;;;;;;;13.80;6.68;;;;;;;;;;6284606;28;20797;-55
2022/05/24 05:19:10;;;;;;;12.20;6.80;;;;;;;;;;6283268;28;20044;-52
2022/05/24 05:22:12;;;;;;;13.15;7.22;;;;;;;;;;6289828;28;20053;-55
2022/05/24 05:25:12;;;;;;;12.60;7.22;;;;;;;;;;6283990;28;20071;-58
2022/05/24 05:28:17;;;;;;;17.60;7.88;;;;;;;;;;6288528;28;20045;-55
2022/05/24 05:31:22;;;;;;;15.90;7.00;;;;;;;;;;6285322;28;20546;-56
2022/05/24 05:34:24;;;;;;;12.77;6.53;;;;;;;;;;6283566;28;20495;-52
2022/05/24 05:37:30;;;;;;;13.13;7.38;;;;;;;;;;6288903;28;20127;-58
2022/05/24 05:40:30;;;;;;;16.20;7.30;;;;;;;;;;6285670;28;20045;-51
2022/05/24 05:43:31;;;;;;;16.05;7.07;;;;;;;;;;6290893;28;20053;-58
2022/05/24 05:46:31;;;;;;;14.85;7.70;;;;;;;;;;6288102;28;20186;-56
2022/05/24 05:49:32;;;;;;;13.20;6.70;;;;;;;;;;6288951;28;20439;-57
2022/05/24 05:52:34;;;;;;;13.27;7.05;;;;;;;;;;6289986;28;20629;-57
2022/05/24 05:55:36;;;;;;;12.05;6.72;;;;;;;;;;6288587;28;20499;-55
2022/05/24 05:58:37;;;;;;;16.38;7.38;;;;;;;;;;6291098;28;20048;-60
2022/05/24 06:01:38;;;;;;;16.05;7.13;;;;;;;;;;6286649;28;20519;-55
2022/05/24 06:04:39;;;;;;;12.07;6.50;;;;;;;;;;6289010;28;20372;-54
2022/05/24 06:07:39;;;;;;;14.00;6.97;;;;;;;;;;6289948;28;20518;-53
2022/05/24 06:10:40;;;;;;;15.07;7.28;;;;;;;;;;6289347;28;20072;-56
2022/05/24 06:13:41;;;;;;;11.20;6.57;;;;;;;;;;6289798;28;20157;-55
2022/05/24 06:16:41;;;;;;;15.00;7.05;;;;;;;;;;6288766;28;20049;-56
2022/05/24 06:19:43;;;;;;;17.25;6.78;;;;;;;;;;6288403;28;20483;-59
2022/05/24 06:22:44;;;;;;;15.30;7.35;;;;;;;;;;6289986;28;20136;-54
2022/05/24 06:25:45;;;;;;;13.43;6.90;;;;;;;;;;6285626;28;20998;-57
2022/05/24 06:28:45;;;;;;;10.82;6.80;;;;;;;;;;6288653;28;20148;-56
2022/05/24 06:31:46;;;;;;;14.02;7.47;;;;;;;;;;6289649;28;20516;-54
2022/05/24 06:34:48;;;;;;;13.13;6.90;;;;;;;;;;6285193;28;20048;-56
2022/05/24 06:37:49;;;;;;;16.15;7.22;;;;;;;;;;6290956;28;20071;-56
2022/05/24 06:40:49;;;;;;;13.50;6.95;;;;;;;;;;6287656;28;20048;-54
2022/05/24 06:43:50;;;;;;;13.05;7.10;;;;;;;;;;6289469;28;20075;-55
2022/05/24 06:46:51;;;;;;;13.07;6.88;;;;;;;;;;6289097;28;20045;-59
2022/05/24 06:49:51;;;;;;;11.32;6.80;;;;;;;;;;6288088;28;20047;-55
2022/05/24 06:52:56;;;;;;;13.00;6.95;;;;;;;;;;6288254;28;20152;-59
2022/05/24 06:55:57;;;;;;;11.88;6.70;;;;;;;;;;6288735;28;20072;-59
2022/05/24 07:02:25;;;;;;;14.30;7.82;;;;;;;;;;6289128;28;20133;-57
2022/05/24 07:05:26;;;;;;;10.40;7.53;;;;;;;;;;6286522;28;20063;-53
2022/05/24 07:08:28;;;;;;;11.35;7.28;;;;;;;;;;6288655;28;20048;-60
2022/05/24 07:11:28;;;;;;;16.52;7.75;;;;;;;;;;6287447;28;20209;-52
2022/05/24 07:14:29;;;;;;;11.00;6.65;;;;;;;;;;6286006;28;20509;-58
2022/05/24 07:17:30;;;;;;;14.05;7.65;;;;;;;;;;6288089;28;20599;-56
2022/05/24 07:20:33;;;;;;;14.02;6.90;;;;;;;;;;6288740;28;20682;-59
2022/05/24 07:23:37;;;;;;;15.15;7.35;;;;;;;;;;6289179;28;20147;-56
2022/05/24 07:26:37;;;;;;;12.30;6.65;;;;;;;;;;6296970;28;20071;-60
2022/05/24 07:29:39;;;;;;;10.38;6.68;;;;;;;;;;6291180;28;20894;-55
2022/05/24 07:32:39;;;;;;;11.57;6.88;;;;;;;;;;6289203;28;20068;-58
2022/05/24 07:35:40;;;;;;;13.80;7.28;;;;;;;;;;6289276;28;20071;-54
2022/05/24 07:38:41;;;;;;;10.93;6.63;;;;;;;;;;6293028;28;20263;-57
2022/05/24 07:48:20;;;;;;;11.15;7.10;;;;;;;;;;6294986;28;20050;-59
2022/05/24 07:51:21;;;;;;;13.50;7.18;;;;;;;;;;6307017;28;20044;-59
2022/05/24 07:54:21;;;;;;;10.52;7.28;;;;;;;;;;6307384;28;20044;-55
2022/05/24 07:57:22;;;;;;;13.13;6.93;;;;;;;;;;6304820;28;20494;-58
2022/05/24 08:00:23;;;;;;;11.32;6.63;;;;;;;;;;6307582;28;20439;-57
2022/05/24 08:03:24;;;;;;;12.27;6.78;;;;;;;;;;6307215;28;20051;-55
2022/05/24 08:06:24;;;;;;;10.53;6.97;;;;;;;;;;6303858;28;20052;-55
2022/05/24 08:09:25;;;;;;;10.43;6.80;;;;;;;;;;6306131;28;20446;-59
2022/05/24 08:12:26;;;;;;;11.88;7.32;;;;;;;;;;6306361;28;20407;-60
2022/05/24 08:15:29;;;;;;;13.48;7.40;;;;;;;;;;6301523;28;20574;-59
2022/05/24 08:18:30;;;;;;;14.70;7.45;;;;;;;;;;6289276;28;20047;-53
2022/05/24 08:21:31;;;;;;;14.47;7.70;;;;;;;;;;6285922;28;20136;-59
2022/05/24 08:24:33;;;;;;;12.07;6.97;;;;;;;;;;6285049;28;20040;-56
2022/05/24 08:27:33;;;;;;;12.55;6.97;;;;;;;;;;6292358;28;20470;-56
2022/05/24 08:30:36;;;;;;;11.55;7.13;;;;;;;;;;6284998;28;20040;-57
2022/05/24 08:33:37;;;;;;;12.52;7.50;;;;;;;;;;6284654;28;21456;-59
2022/05/24 08:36:38;;;;;;;10.57;6.78;;;;;;;;;;6279861;28;20051;-58
2022/05/24 08:39:38;;;;;;;12.38;7.45;;;;;;;;;;6291620;28;20519;-56
2022/05/24 08:42:54;;;;;;;20.65;7.53;;;;;;;;;;6289601;28;20048;-58
2022/05/24 08:49:18;;;;;;;14.93;7.63;;;;;;;;;;6289484;28;20059;-56
2022/05/24 08:52:19;;;;;;;10.73;7.35;;;;;;;;;;6302460;28;20472;-57
2022/05/24 08:55:20;;;;;;;13.20;7.95;;;;;;;;;;6305802;28;20040;-58
2022/05/24 08:58:32;;;;;;;12.77;7.70;;;;;;;;;;6302746;28;20040;-58
2022/05/24 09:01:32;;;;;;;14.73;7.97;;;;;;;;;;6304721;28;20101;-58
2022/05/24 09:04:33;;;;;;;12.85;8.02;;;;;;;;;;6300921;28;20093;-56
2022/05/24 09:07:48;;;;;;;22.90;8.35;;;;;;;;;;6285928;28;20048;-59
2022/05/24 09:11:11;;;;;;;14.23;8.40;;;;;;;;;;6285797;28;20591;-58
2022/05/24 09:14:17;;;;;;;14.02;8.43;;;;;;;;;;6286162;28;20054;-56
2022/05/24 09:17:37;;;;;;;15.32;8.52;;;;;;;;;;6288310;28;20483;-59
2022/05/24 09:20:41;;;;;;;13.77;7.60;;;;;;;;;;6285427;28;20052;-61
2022/05/24 09:23:46;;;;;;;13.10;8.23;;;;;;;;;;6285803;28;20127;-58
2022/05/24 09:27:10;;;;;;;14.25;7.35;;;;;;;;;;6289669;28;20063;-59
2022/05/24 09:30:30;;;;;;;14.82;7.80;;;;;;;;;;6283828;28;20044;-60
2022/05/24 09:33:31;;;;;;;14.43;8.68;;;;;;;;;;6288230;28;20120;-58
2022/05/24 09:36:41;;;;;;;13.77;8.00;;;;;;;;;;6283479;28;20071;-51
2022/05/24 09:39:55;;;;;;;15.18;8.73;;;;;;;;;;6294014;28;20171;-53
2022/05/24 09:42:55;;;;;;;14.85;8.90;;;;;;;;;;6284381;28;20110;-56
2022/05/24 09:46:17;;;;;;;13.93;9.05;;;;;;;;;;6291260;28;20040;-57
2022/05/24 09:49:25;;;;;;;13.05;8.70;;;;;;;;;;6295123;28;20076;-56
2022/05/24 09:52:25;;;;;;;14.23;9.15;;;;;;;;;;6299877;28;20076;-58
2022/05/24 09:55:26;;;;;;;12.98;8.77;;;;;;;;;;6300573;28;20102;-59
2022/05/24 09:58:38;;;;;;;13.80;8.48;;;;;;;;;;6298930;28;20330;-57
2022/05/24 10:01:43;;;;;;;13.82;8.38;;;;;;;;;;6300269;28;20060;-55
2022/05/24 10:04:46;;;;;;;14.60;8.85;;;;;;;;;;6300462;28;20055;-55
2022/05/24 10:08:04;;;;;;;14.90;8.85;;;;;;;;;;6298691;28;20086;-56
2022/05/24 10:11:10;;;;;;;14.68;8.90;;;;;;;;;;6287436;28;20047;-57
2022/05/24 10:14:17;;;;;;;14.10;8.68;;;;;;;;;;6288511;28;20048;-58
2022/05/24 10:17:53;;;;;;;15.52;9.60;;;;;;;;;;6287899;28;20082;-55
2022/05/24 10:21:21;;;;;;;14.98;9.18;;;;;;;;;;6277248;28;20542;-55
2022/05/24 10:24:51;;;;;;;18.00;9.75;;;;;;;;;;6290502;28;20056;-57
2022/05/24 10:28:06;;;;;;;16.50;10.00;;;;;;;;;;6291430;28;20104;-58
2022/05/24 10:31:12;;;;;;;15.77;9.80;;;;;;;;;;6281804;28;20047;-53
2022/05/24 10:38:22;;;;;;;17.92;10.98;;;;;;;;;;6285323;28;20143;-59
2022/05/24 10:42:02;;;;;;;18.52;10.88;;;;;;;;;;6297230;28;20517;-57
2022/05/24 10:45:09;;;;;;;17.65;11.68;;;;;;;;;;6300857;28;20048;-60
2022/05/24 10:48:13;;;;;;;19.25;12.18;;;;;;;;;;6299492;28;20076;-60
2022/05/24 10:51:32;;;;;;;20.90;11.68;;;;;;;;;;6301136;28;20078;-58
2022/05/24 10:54:50;;;;;;;18.98;11.55;;;;;;;;;;6300566;28;20807;-58
2022/05/24 10:58:03;;;;;;;19.08;12.27;;;;;;;;;;6299531;28;20040;-57
2022/05/24 11:01:25;;;;;;;17.00;10.63;;;;;;;;;;6305677;28;20148;-58
2022/05/24 11:04:39;;;;;;;15.88;11.38;;;;;;;;;;6306023;28;20130;-59
2022/05/24 11:07:40;;;;;;;19.17;11.55;;;;;;;;;;6303365;28;20518;-58
2022/05/24 11:10:44;;;;;;;17.70;11.55;;;;;;;;;;6294092;28;20056;-66
2022/05/24 11:13:56;;;;;;;17.83;10.93;;;;;;;;;;6293319;28;20051;-59
2022/05/24 11:16:58;;;;;;;18.63;11.30;;;;;;;;;;6286922;28;20045;-59
2022/05/24 11:19:59;;;;;;;18.50;10.73;;;;;;;;;;6291460;28;20621;-56
2022/05/24 11:23:12;;;;;;;17.23;11.18;;;;;;;;;;6290997;28;20048;-57
2022/05/24 11:26:24;;;;;;;16.38;10.55;;;;;;;;;;6290667;28;20090;-58
2022/05/24 11:29:42;;;;;;;18.50;10.70;;;;;;;;;;6290022;28;20777;-55
2022/05/24 11:32:47;;;;;;;14.25;10.35;;;;;;;;;;6290264;28;20052;-59
2022/05/24 11:35:52;;;;;;;16.48;11.02;;;;;;;;;;6288928;28;21286;-58
2022/05/24 11:38:53;;;;;;;19.05;11.05;;;;;;;;;;6288776;28;20588;-58
2022/05/24 11:42:49;;;;;;;16.40;10.70;;;;;;;;;;6289271;28;20052;-57
2022/05/24 11:45:58;;;;;;;24.60;12.90;;;;;;;;;;6184698;28;20101;-58
2022/05/24 11:49:01;;;;;;;21.95;11.38;;;;;;;;;;6303076;28;20537;-57
2022/05/24 11:52:40;;;;;;;14.25;10.60;;;;;;;;;;6301689;28;20847;-59
2022/05/24 11:55:46;;;;;;;16.83;9.90;;;;;;;;;;6303354;28;20044;-55
2022/05/24 11:58:50;;;;;;;14.27;9.95;;;;;;;;;;6298180;28;20048;-58
2022/05/24 12:01:51;;;;;;;16.45;10.15;;;;;;;;;;6303393;28;20044;-57
2022/05/24 12:08:37;;;;;;;14.00;9.27;;;;;;;;;;6298803;28;20048;-56
2022/05/24 12:11:38;;;;;;;14.65;9.90;;;;;;;;;;6301789;28;20641;-58
2022/05/24 12:14:39;;;;;;;17.40;10.67;;;;;;;;;;6301160;28;20100;-57
2022/05/24 12:17:41;;;;;;;15.60;9.98;;;;;;;;;;6300725;28;20341;-56
2022/05/24 12:20:42;;;;;;;18.95;10.35;;;;;;;;;;6301887;28;20055;-59
2022/05/24 12:23:43;;;;;;;18.13;9.90;;;;;;;;;;6301563;28;20050;-58
2022/05/24 12:27:14;;;;;;;17.77;9.87;;;;;;;;;;6301163;28;20543;-57
2022/05/24 12:30:20;;;;;;;16.98;10.35;;;;;;;;;;6301944;28;20059;-55
2022/05/24 12:33:30;;;;;;;15.35;9.60;;;;;;;;;;6302514;28;20075;-56
2022/05/24 12:36:43;;;;;;;15.32;9.30;;;;;;;;;;6301673;28;20116;-60
2022/05/24 12:40:07;;;;;;;15.10;9.07;;;;;;;;;;6301227;28;20079;-57
2022/05/24 12:43:15;;;;;;;13.77;9.55;;;;;;;;;;6298161;28;20071;-59
2022/05/24 12:46:16;;;;;;;13.00;9.38;;;;;;;;;;6295904;28;20119;-59
2022/05/24 12:49:24;;;;;;;15.63;10.20;;;;;;;;;;6303779;28;20873;-60
2022/05/24 12:52:31;;;;;;;15.02;9.35;;;;;;;;;;6293650;28;20040;-60
2022/05/24 12:58:54;;;;;;;13.75;9.18;;;;;;;;;;6302578;28;20036;-58
2022/05/24 13:01:55;;;;;;;15.45;9.02;;;;;;;;;;6300414;28;20780;-57
2022/05/24 13:04:58;;;;;;;13.33;9.43;;;;;;;;;;6300414;28;20060;-57
2022/05/24 13:08:01;;;;;;;12.20;9.32;;;;;;;;;;6293567;28;20091;-59
2022/05/24 13:11:02;;;;;;;13.88;8.88;;;;;;;;;;6286012;28;20538;-58
2022/05/24 13:14:04;;;;;;;14.40;9.23;;;;;;;;;;6288322;28;20059;-57
2022/05/24 13:17:05;;;;;;;;;;;;;;;;;;6298112;28;20092;-59
2022/05/24 13:20:23;;;;;;;12.02;8.05;;;;;;;;;;6301608;28;20550;-58
2022/05/24 13:23:41;;;;;;;12.25;8.38;;;;;;;;;;6301581;28;20097;-60
2022/05/24 13:27:00;;;;;;;11.75;8.88;;;;;;;;;;6301694;28;20147;-59
2022/05/24 13:33:34;;;;;;;12.68;8.95;;;;;;;;;;6288896;28;20040;-59
2022/05/24 13:36:44;;;;;;;16.50;9.50;;;;;;;;;;6287395;28;20051;-58
2022/05/24 13:39:45;;;;;;;14.60;8.80;;;;;;;;;;6290776;28;20080;-60
2022/05/24 13:42:55;;;;;;;11.63;9.07;;;;;;;;;;6292647;28;20059;-58
2022/05/24 13:46:16;;;;;;;13.65;9.68;;;;;;;;;;6285995;28;20056;-58
2022/05/24 13:49:45;;;;;;;13.18;9.70;;;;;;;;;;6285330;28;20040;-60
2022/05/24 13:52:49;;;;;;;13.23;9.60;;;;;;;;;;6286122;28;20143;-58
2022/05/24 13:55:56;;;;;;;15.15;9.25;;;;;;;;;;6285972;28;20123;-60
2022/05/24 13:59:29;;;;;;;13.73;9.00;;;;;;;;;;6284251;28;20076;-58
2022/05/24 14:02:30;;;;;;;14.43;9.80;;;;;;;;;;6254662;28;20102;-59
2022/05/24 14:05:33;;;;;;;16.07;9.30;;;;;;;;;;6284141;28;20044;-59
2022/05/24 14:08:36;;;;;;;13.30;9.40;;;;;;;;;;6283917;28;20560;-60
2022/05/24 14:11:51;;;;;;;15.48;8.95;;;;;;;;;;6282269;28;20133;-60
2022/05/24 14:14:51;;;;;;;12.57;8.95;;;;;;;;;;6282778;28;20040;-59
2022/05/24 14:17:52;;;;;;;13.37;8.80;;;;;;;;;;6284520;28;20085;-60
2022/05/24 14:20:52;;;;;;;14.90;8.83;;;;;;;;;;6282268;28;20055;-60
2022/05/24 14:23:54;;;;;;;13.10;9.37;;;;;;;;;;6281696;28;20064;-57
2022/05/24 14:26:56;;;;;;;;;;;;;;;;;;6283772;28;20515;-55
2022/05/24 14:29:57;;;;;;;;;;;;;;;;;;6288854;28;20069;-58
2022/05/24 14:33:00;;;;;;;14.13;8.25;;;;;;;;;;6282346;28;19920;-60
2022/05/24 14:36:01;;;;;;;12.80;8.52;;;;;;;;;;6285699;28;20051;-59
2022/05/24 14:39:02;;;;;;;11.83;8.67;;;;;;;;;;6281284;28;20052;-58
2022/05/24 14:42:03;;;;;;;13.90;8.68;;;;;;;;;;6297149;28;20469;-60
2022/05/24 14:45:04;;;;;;;14.47;9.03;;;;;;;;;;6299755;28;20131;-57
2022/05/24 14:48:05;;;;;;;15.48;9.25;;;;;;;;;;6297415;28;20162;-60
2022/05/24 14:51:06;;;;;;;12.87;8.93;;;;;;;;;;6296945;28;20036;-59
2022/05/24 14:54:07;;;;;;;12.57;8.50;;;;;;;;;;6297337;28;20072;-60
2022/05/24 14:57:08;;;;;;;12.27;8.43;;;;;;;;;;6294433;28;20851;-59
2022/05/24 15:00:09;;;;;;;13.27;8.47;;;;;;;;;;6295665;28;20055;-59
2022/05/24 15:03:09;;;;;;;14.73;9.17;;;;;;;;;;6297293;28;20489;-59
2022/05/24 15:06:10;;;;;;;14.57;8.73;;;;;;;;;;6294144;28;20051;-58
2022/05/24 15:15:51;;;;;;;14.20;8.77;;;;;;;;;;6293848;28;20472;-60
2022/05/24 15:18:52;;;;;;;12.83;8.43;;;;;;;;;;6296874;28;20089;-59
2022/05/24 15:21:53;;;;;;;12.53;8.67;;;;;;;;;;6300280;28;20142;-59
2022/05/24 15:24:53;;;;;;;15.53;9.07;;;;;;;;;;6300150;28;20121;-60
2022/05/24 15:27:55;;;;;;;12.73;9.17;;;;;;;;;;6300233;28;20391;-58
2022/05/24 15:30:56;;;;;;;13.00;8.50;;;;;;;;;;6301520;28;20071;-59
2022/05/24 15:33:57;;;;;;;14.20;8.50;;;;;;;;;;6300446;28;20474;-60
2022/05/24 15:36:58;;;;;;;14.80;9.13;;;;;;;;;;6300363;28;20117;-59
2022/05/24 15:39:58;;;;;;;12.70;9.20;;;;;;;;;;6298427;28;20042;-58
2022/05/24 15:43:00;;;;;;;12.13;8.20;;;;;;;;;;6303315;28;20598;-59
2022/05/24 15:46:01;;;;;;;13.45;8.93;;;;;;;;;;6298399;28;20619;-59
2022/05/24 15:49:02;;;;;;;14.97;9.50;;;;;;;;;;6301506;28;20045;-56
2022/05/24 15:52:04;;;;;;;12.13;9.10;;;;;;;;;;6300819;28;20124;-59
2022/05/24 15:55:05;;;;;;;13.07;9.07;;;;;;;;;;6299002;28;20214;-58
2022/05/24 15:58:06;;;;;;;13.10;8.90;;;;;;;;;;6300350;28;20084;-58
2022/05/24 16:01:10;;;;;;;21.47;9.60;;;;;;;;;;6302628;28;21012;-60
2022/05/24 16:04:10;;;;;;;12.30;9.07;;;;;;;;;;6302017;28;20066;-58
2022/05/24 16:10:30;;;;;;;14.10;9.88;;;;;;;;;;6302272;28;20040;-60
2022/05/24 16:13:34;;;;;;;14.80;9.40;;;;;;;;;;6299245;28;20044;-60
2022/05/24 16:16:39;;;;;;;13.23;9.60;;;;;;;;;;6296129;28;20131;-56
2022/05/24 16:19:40;;;;;;;14.38;9.40;;;;;;;;;;6299914;28;20044;-59
2022/05/24 16:22:43;;;;;;;15.93;9.23;;;;;;;;;;6305369;28;20059;-58
2022/05/24 16:25:44;;;;;;;13.45;9.23;;;;;;;;;;6300806;28;20500;-59
2022/05/24 16:28:48;;;;;;;15.23;10.03;;;;;;;;;;6298090;28;20055;-60
2022/05/24 16:31:49;;;;;;;15.10;9.48;;;;;;;;;;6296209;28;20343;-61
2022/05/24 16:34:50;;;;;;;15.50;9.33;;;;;;;;;;6302046;28;20772;-58
2022/05/24 16:37:51;;;;;;;13.85;10.60;;;;;;;;;;6298894;28;20047;-59
2022/05/24 16:40:51;;;;;;;13.38;10.20;;;;;;;;;;6298563;28;20049;-59
2022/05/24 16:43:52;;;;;;;14.50;9.90;;;;;;;;;;6303977;28;20762;-54
2022/05/24 16:46:53;;;;;;;15.02;10.00;;;;;;;;;;6302658;28;20048;-58
2022/05/24 16:49:53;;;;;;;14.27;10.87;;;;;;;;;;6303132;28;20055;-58
2022/05/24 16:53:01;;;;;;;15.33;10.00;;;;;;;;;;6302367;28;20040;-60
2022/05/24 16:59:21;;;;;;;16.48;9.43;;;;;;;;;;6299687;28;20610;-60
2022/05/24 17:02:22;;;;;;;15.27;9.97;;;;;;;;;;6300638;28;20054;-59
2022/05/24 17:05:24;;;;;;;15.77;10.38;;;;;;;;;;6302811;28;20036;-59
2022/05/24 17:08:24;;;;;;;14.02;10.52;;;;;;;;;;6299799;28;20044;-58
2022/05/24 17:11:25;;;;;;;15.57;10.27;;;;;;;;;;6302062;28;20491;-59
2022/05/24 17:14:26;;;;;;;20.00;11.43;;;;;;;;;;6301079;28;20475;-59
2022/05/24 17:17:27;;;;;;;18.03;10.70;;;;;;;;;;6298407;28;20044;-58
2022/05/24 17:20:28;;;;;;;19.85;11.52;;;;;;;;;;6297523;28;20391;-59
2022/05/24 17:23:29;;;;;;;16.20;11.68;;;;;;;;;;6302471;28;20553;-59
2022/05/24 17:26:30;;;;;;;20.07;12.37;;;;;;;;;;6303012;28;20063;-58
2022/05/24 17:29:30;;;;;;;19.47;12.97;;;;;;;;;;6303894;28;20050;-59
2022/05/24 17:32:43;;;;;;;18.13;12.43;;;;;;;;;;6302779;28;20541;-58
2022/05/24 17:35:44;;;;;;;19.13;11.80;;;;;;;;;;6304184;28;20043;-58
2022/05/24 17:38:45;;;;;;;17.23;12.20;;;;;;;;;;6301418;28;20056;-60
2022/05/24 17:41:47;;;;;;;22.27;12.20;;;;;;;;;;6301769;28;20315;-60
2022/05/24 17:44:48;;;;;;;18.38;12.93;;;;;;;;;;6304252;28;20079;-59
2022/05/24 17:47:50;;;;;;;20.65;13.65;;;;;;;;;;6300206;28;20052;-59
2022/05/24 17:50:51;;;;;;;22.60;15.25;;;;;;;;;;6303856;28;20574;-58
2022/05/24 17:53:51;;;;;;;24.55;14.25;;;;;;;;;;6303257;28;20343;-59
2022/05/24 17:56:53;;;;;;;19.42;14.73;;;;;;;;;;6301730;28;20143;-58
2022/05/24 17:59:54;;;;;;;23.52;14.82;;;;;;;;;;6303738;28;20509;-56
2022/05/24 18:02:54;;;;;;;22.33;16.10;;;;;;;;;;6296892;28;20044;-59
2022/05/24 18:05:55;;;;;;;21.35;15.05;;;;;;;;;;6299504;28;20044;-59
2022/05/24 18:08:56;;;;;;;20.67;16.15;;;;;;;;;;6296895;28;20431;-59
2022/05/24 18:11:58;;;;;;;23.77;16.17;;;;;;;;;;6298712;28;20544;-59
2022/05/24 18:14:59;;;;;;;21.40;16.15;;;;;;;;;;6302259;28;20139;-60
2022/05/24 18:17:59;;;;;;;24.35;14.95;;;;;;;;;;6298796;28;20462;-59
2022/05/24 18:21:01;;;;;;;22.53;15.27;;;;;;;;;;6299254;28;20104;-60
2022/05/24 18:24:03;;;;;;;;;;;;;;;;;;6301134;28;20469;-55
2022/05/24 18:33:50;;;;;;;21.80;15.10;;;;;;;;;;6299615;28;20047;-60
2022/05/24 18:36:55;;;;;;;25.55;16.73;;;;;;;;;;6298839;28;20505;-59
2022/05/24 18:39:55;;;;;;;24.73;16.45;;;;;;;;;;6299993;28;20064;-59
2022/05/24 18:42:56;;;;;;;25.48;17.08;;;;;;;;;;6298331;28;20556;-59
2022/05/24 18:45:58;;;;;;;26.43;17.93;;;;;;;;;;6292890;28;20074;-60
2022/05/24 18:49:00;;;;;;;24.17;16.80;;;;;;;;;;6300473;28;20313;-60
2022/05/24 18:52:00;;;;;;;;;;;;;;;;;;6303751;28;20058;-60
2022/05/24 18:55:04;;;;;;;27.70;16.90;;;;;;;;;;6302899;28;19980;-58
2022/05/24 18:58:06;;;;;;;27.65;17.52;;;;;;;;;;6298998;28;20483;-59
2022/05/24 19:01:09;;;;;;;28.85;19.05;;;;;;;;;;6302929;28;20048;-59
2022/05/24 19:04:10;;;;;;;26.67;18.40;;;;;;;;;;6302382;28;20404;-60
2022/05/24 19:07:17;;;;;;;35.53;18.98;;;;;;;;;;6301110;28;20066;-58
2022/05/24 19:10:18;;;;;;;29.00;18.92;;;;;;;;;;6302868;28;20051;-60
2022/05/24 19:13:18;;;;;;;24.53;17.67;;;;;;;;;;6302591;28;20417;-57